createdAt,value
2023-02-19T00:01:35.644Z,10.88
2023-02-19T00:04:10.192Z,10.88
2023-02-19T00:06:37.169Z,10.88
2023-02-19T00:09:04.775Z,10.83
2023-02-19T00:11:34.006Z,10.74
2023-02-19T00:14:02.437Z,10.68
2023-02-19T00:16:32.292Z,10.60
2023-02-19T00:19:00.525Z,10.68
2023-02-19T00:21:28.063Z,10.72
2023-02-19T00:23:57.950Z,10.68
2023-02-19T00:26:25.263Z,10.66
2023-02-19T00:28:53.720Z,10.67
2023-02-19T00:31:27.645Z,10.71
2023-02-19T00:33:57.654Z,10.69
2023-02-19T00:36:26.095Z,10.68
2023-02-19T00:38:52.879Z,10.62
2023-02-19T00:41:21.603Z,10.57
2023-02-19T00:43:49.568Z,10.53
2023-02-19T00:46:22.436Z,10.55
2023-02-19T00:48:49.289Z,10.52
2023-02-19T00:51:16.169Z,10.50
2023-02-19T00:53:43.551Z,10.45
2023-02-19T00:56:10.965Z,10.38
2023-02-19T00:58:38.405Z,10.42
2023-02-19T01:01:06.665Z,10.36
2023-02-19T01:03:34.934Z,10.42
2023-02-19T01:06:02.251Z,10.47
2023-02-19T01:08:31.179Z,10.53
2023-02-19T01:11:00.941Z,10.56
2023-02-19T01:13:28.519Z,10.61
2023-02-19T01:16:17.387Z,10.63
2023-02-19T01:18:45.129Z,10.66
2023-02-19T01:21:17.795Z,10.58
2023-02-19T01:23:46.666Z,10.58
2023-02-19T01:26:16.949Z,10.63
2023-02-19T01:28:44.948Z,10.67
2023-02-19T01:31:17.745Z,10.72
2023-02-19T01:33:49.340Z,10.75
2023-02-19T01:36:16.946Z,10.76
2023-02-19T01:38:44.522Z,10.79
2023-02-19T01:41:17.310Z,10.80
2023-02-19T01:44:09.125Z,10.80
2023-02-19T01:46:44.360Z,10.80
2023-02-19T01:49:18.749Z,10.83
2023-02-19T01:51:49.508Z,10.82
2023-02-19T01:54:22.722Z,10.83
2023-02-19T01:56:50.409Z,10.85
2023-02-19T01:59:18.920Z,10.70
2023-02-19T02:01:46.090Z,10.59
2023-02-19T02:04:14.875Z,10.57
2023-02-19T02:06:57.376Z,10.59
2023-02-19T02:09:47.287Z,10.62
2023-02-19T02:12:14.470Z,10.66
2023-02-19T02:14:45.457Z,10.71
2023-02-19T02:17:12.643Z,10.73
2023-02-19T02:20:01.160Z,10.73
2023-02-19T02:22:43.381Z,10.73
2023-02-19T02:25:52.759Z,10.70
2023-02-19T02:28:37.221Z,10.65
2023-02-19T02:31:14.167Z,10.67
2023-02-19T02:34:04.870Z,10.71
2023-02-19T02:36:43.607Z,10.73
2023-02-19T02:39:17.549Z,10.74
2023-02-19T02:42:09.630Z,10.79
2023-02-19T02:44:38.227Z,10.76
2023-02-19T02:47:07.316Z,10.80
2023-02-19T02:49:55.446Z,10.80
2023-02-19T02:52:41.379Z,10.80
2023-02-19T02:55:11.089Z,10.84
2023-02-19T02:57:38.812Z,10.79
2023-02-19T03:00:06.499Z,10.81
2023-02-19T03:02:33.825Z,10.78
2023-02-19T03:05:24.363Z,10.79
2023-02-19T03:08:07.592Z,10.80
2023-02-19T03:10:41.762Z,10.79
2023-02-19T03:13:35.289Z,10.70
2023-02-19T03:16:28.696Z,10.62
2023-02-19T03:19:32.134Z,10.61
2023-02-19T03:22:22.800Z,10.62
2023-02-19T03:25:18.193Z,10.66
2023-02-19T03:27:48.405Z,10.63
2023-02-19T03:30:20.816Z,10.65
2023-02-19T03:33:03.088Z,10.61
2023-02-19T03:35:34.164Z,10.64
2023-02-19T03:38:04.929Z,10.66
2023-02-19T03:40:44.058Z,10.69
2023-02-19T03:43:23.625Z,10.71
2023-02-19T03:46:23.355Z,10.71
2023-02-19T03:49:06.608Z,10.69
2023-02-19T03:51:43.305Z,10.68
2023-02-19T03:54:16.221Z,10.71
2023-02-19T03:56:58.686Z,10.68
2023-02-19T03:59:37.555Z,10.67
2023-02-19T04:02:13.623Z,10.67
2023-02-19T04:04:56.403Z,10.69
2023-02-19T04:07:25.642Z,10.62
2023-02-19T04:09:53.507Z,10.62
2023-02-19T04:12:23.263Z,10.62
2023-02-19T04:15:07.151Z,10.61
2023-02-19T04:17:42.499Z,10.63
2023-02-19T04:20:11.876Z,10.64
2023-02-19T04:22:40.106Z,10.61
2023-02-19T04:25:08.184Z,10.58
2023-02-19T04:27:44.455Z,10.58
2023-02-19T04:30:13.701Z,10.62
2023-02-19T04:32:40.415Z,10.63
2023-02-19T04:35:07.253Z,10.57
2023-02-19T04:37:33.985Z,10.58
2023-02-19T04:40:00.842Z,10.60
2023-02-19T04:42:27.642Z,10.59
2023-02-19T04:44:54.350Z,10.61
2023-02-19T04:47:21.062Z,10.60
2023-02-19T04:49:47.947Z,10.59
2023-02-19T04:52:14.979Z,10.62
2023-02-19T04:54:41.731Z,10.61
2023-02-19T04:57:08.594Z,10.57
2023-02-19T04:59:35.457Z,10.56
2023-02-19T05:02:02.166Z,10.58
2023-02-19T05:04:28.976Z,10.59
2023-02-19T05:06:55.856Z,10.59
2023-02-19T05:09:22.636Z,10.53
2023-02-19T05:11:49.448Z,10.45
2023-02-19T05:14:17.218Z,10.44
2023-02-19T05:16:43.991Z,10.45
2023-02-19T05:19:13.842Z,10.50
2023-02-19T05:21:41.043Z,10.52
2023-02-19T05:24:08.340Z,10.53
2023-02-19T05:26:35.576Z,10.48
2023-02-19T05:29:02.774Z,10.47
2023-02-19T05:31:30.020Z,10.49
2023-02-19T05:33:57.002Z,10.46
2023-02-19T05:36:24.340Z,10.37
2023-02-19T05:38:55.212Z,10.15
2023-02-19T05:41:24.820Z,10.05
2023-02-19T05:43:51.910Z,10.08
2023-02-19T05:46:21.682Z,10.16
2023-02-19T05:48:49.316Z,10.23
2023-02-19T05:51:18.433Z,10.28
2023-02-19T05:53:46.211Z,10.30
2023-02-19T05:56:31.271Z,10.36
2023-02-19T05:58:58.416Z,10.38
2023-02-19T06:01:28.443Z,10.42
2023-02-19T06:03:57.483Z,10.55
2023-02-19T06:06:26.221Z,10.55
2023-02-19T06:08:53.428Z,10.46
2023-02-19T06:11:20.641Z,10.41
2023-02-19T06:13:49.427Z,10.38
2023-02-19T06:16:17.831Z,10.40
2023-02-19T06:18:45.237Z,10.36
2023-02-19T06:21:12.603Z,10.34
2023-02-19T06:23:39.897Z,10.34
2023-02-19T06:26:06.681Z,10.34
2023-02-19T06:28:33.614Z,10.34
2023-02-19T06:31:00.657Z,10.34
2023-02-19T06:33:28.442Z,10.36
2023-02-19T06:35:58.753Z,10.37
2023-02-19T06:38:25.651Z,10.29
2023-02-19T06:40:52.527Z,10.27
2023-02-19T06:43:19.523Z,10.33
2023-02-19T06:45:46.899Z,10.30
2023-02-19T06:48:13.754Z,10.25
2023-02-19T06:50:40.421Z,10.29
2023-02-19T06:53:09.031Z,10.26
2023-02-19T06:55:35.996Z,10.27
2023-02-19T06:58:02.757Z,10.37
2023-02-19T07:00:29.840Z,10.32
2023-02-19T07:02:56.806Z,10.24
2023-02-19T07:05:23.707Z,10.20
2023-02-19T07:07:50.625Z,10.20
2023-02-19T07:10:18.013Z,10.16
2023-02-19T07:12:44.831Z,10.22
2023-02-19T07:15:11.556Z,10.27
2023-02-19T07:17:38.307Z,10.32
2023-02-19T07:20:05.246Z,10.35
2023-02-19T07:22:32.016Z,10.39
2023-02-19T07:24:58.804Z,10.44
2023-02-19T07:27:25.539Z,10.49
2023-02-19T07:29:52.414Z,10.51
2023-02-19T07:32:19.313Z,10.55
2023-02-19T07:34:45.966Z,10.59
2023-02-19T07:37:12.821Z,10.61
2023-02-19T07:39:39.664Z,10.64
2023-02-19T07:42:06.632Z,10.66
2023-02-19T07:44:33.622Z,10.67
2023-02-19T07:47:00.388Z,10.70
2023-02-19T07:49:27.162Z,10.72
2023-02-19T07:51:53.960Z,10.72
2023-02-19T07:54:20.717Z,10.75
2023-02-19T07:56:47.524Z,10.75
2023-02-19T07:59:15.898Z,10.76
2023-02-19T08:02:01.279Z,10.80
2023-02-19T08:04:28.095Z,10.81
2023-02-19T08:06:54.833Z,10.75
2023-02-19T08:09:21.638Z,10.72
2023-02-19T08:12:07.071Z,10.72
2023-02-19T08:14:34.059Z,10.84
2023-02-19T08:17:01.078Z,10.89
2023-02-19T08:19:28.067Z,10.90
2023-02-19T08:21:54.904Z,10.90
2023-02-19T08:24:21.797Z,10.97
2023-02-19T08:26:48.661Z,10.99
2023-02-19T08:29:15.455Z,10.91
2023-02-19T08:31:42.334Z,10.88
2023-02-19T08:34:09.219Z,10.86
2023-02-19T08:36:35.957Z,10.86
2023-02-19T08:39:02.941Z,10.88
2023-02-19T08:41:29.744Z,10.93
2023-02-19T08:43:56.719Z,10.96
2023-02-19T08:46:23.685Z,10.94
2023-02-19T08:48:50.635Z,10.97
2023-02-19T08:51:18.990Z,10.98
2023-02-19T08:53:46.198Z,10.95
2023-02-19T08:56:18.630Z,10.99
2023-02-19T08:58:45.844Z,11.01
2023-02-19T09:01:15.558Z,11.00
2023-02-19T09:03:42.688Z,10.99
2023-02-19T09:06:17.929Z,11.03
2023-02-19T09:08:45.111Z,11.07
2023-02-19T09:11:12.684Z,11.09
2023-02-19T09:13:39.755Z,11.10
2023-02-19T09:16:06.936Z,11.11
2023-02-19T09:18:33.898Z,11.17
2023-02-19T09:21:02.043Z,11.21
2023-02-19T09:23:29.163Z,11.21
2023-02-19T09:26:00.288Z,11.25
2023-02-19T09:28:28.265Z,11.20
2023-02-19T09:30:55.428Z,11.17
2023-02-19T09:33:22.345Z,11.18
2023-02-19T09:35:49.153Z,11.19
2023-02-19T09:38:16.095Z,11.24
2023-02-19T09:40:42.959Z,11.22
2023-02-19T09:43:16.814Z,11.31
2023-02-19T09:45:43.863Z,11.34
2023-02-19T09:48:12.587Z,11.32
2023-02-19T09:50:45.888Z,11.34
2023-02-19T09:53:29.808Z,11.36
2023-02-19T09:55:56.935Z,11.52
2023-02-19T09:58:30.106Z,11.46
2023-02-19T10:01:00.922Z,11.54
2023-02-19T10:03:33.713Z,11.68
2023-02-19T10:06:14.421Z,11.72
2023-02-19T10:08:41.740Z,11.73
2023-02-19T10:11:12.213Z,11.78
2023-02-19T10:13:47.497Z,11.77
2023-02-19T10:16:19.454Z,11.76
2023-02-19T10:18:49.739Z,11.72
2023-02-19T10:21:24.633Z,11.77
2023-02-19T10:23:57.553Z,11.84
2023-02-19T10:26:25.177Z,11.85
2023-02-19T10:28:55.585Z,11.83
2023-02-19T10:31:24.991Z,11.83
2023-02-19T10:33:56.993Z,11.81
2023-02-19T10:36:39.196Z,11.79
2023-02-19T10:39:33.464Z,11.78
2023-02-19T10:42:00.574Z,11.76
2023-02-19T10:44:42.894Z,11.80
2023-02-19T10:47:18.095Z,11.86
2023-02-19T10:49:48.892Z,11.90
2023-02-19T10:52:27.150Z,11.95
2023-02-19T10:55:13.253Z,11.98
2023-02-19T10:57:40.624Z,11.97
2023-02-19T11:00:16.405Z,11.98
2023-02-19T11:02:44.414Z,12.02
2023-02-19T11:05:17.147Z,12.13
2023-02-19T11:07:57.997Z,12.21
2023-02-19T11:10:49.530Z,12.37
2023-02-19T11:13:31.251Z,12.47
2023-02-19T11:15:59.131Z,12.54
2023-02-19T11:18:29.299Z,12.55
2023-02-19T11:20:59.236Z,12.51
2023-02-19T11:23:45.797Z,12.52
2023-02-19T11:26:28.051Z,12.66
2023-02-19T11:29:02.825Z,12.77
2023-02-19T11:31:35.510Z,12.88
2023-02-19T11:34:14.574Z,13.01
2023-02-19T11:36:42.919Z,13.05
2023-02-19T11:39:15.812Z,13.15
2023-02-19T11:42:10.680Z,13.36
2023-02-19T11:45:05.921Z,13.53
2023-02-19T11:47:51.268Z,13.59
2023-02-19T11:50:31.157Z,13.70
2023-02-19T11:53:30.611Z,13.80
2023-02-19T11:56:03.582Z,13.81
2023-02-19T11:58:39.058Z,13.88
2023-02-19T12:01:17.366Z,13.93
2023-02-19T12:04:03.255Z,13.84
2023-02-19T12:07:11.272Z,13.67
2023-02-19T12:10:09.196Z,13.67
2023-02-19T12:13:10.045Z,13.82
2023-02-19T12:15:45.646Z,13.81
2023-02-19T12:18:41.234Z,13.86
2023-02-19T12:21:26.399Z,13.81
2023-02-19T12:24:23.522Z,13.71
2023-02-19T12:27:11.379Z,13.79
2023-02-19T12:29:51.074Z,13.87
2023-02-19T12:32:41.252Z,13.86
2023-02-19T12:35:35.716Z,13.82
2023-02-19T12:38:35.909Z,13.71
2023-02-19T12:41:06.191Z,13.72
2023-02-19T12:43:34.838Z,13.83
2023-02-19T12:46:28.180Z,13.85
2023-02-19T12:49:00.562Z,13.85
2023-02-19T12:51:36.647Z,13.83
2023-02-19T12:54:21.052Z,13.94
2023-02-19T12:56:55.465Z,13.94
2023-02-19T12:59:28.816Z,13.93
2023-02-19T13:02:33.229Z,13.98
2023-02-19T13:05:14.411Z,14.04
2023-02-19T13:08:07.977Z,14.14
2023-02-19T13:11:07.170Z,14.11
2023-02-19T13:13:51.654Z,14.23
2023-02-19T13:16:21.128Z,14.27
2023-02-19T13:18:54.886Z,14.24
2023-02-19T13:21:43.007Z,14.32
2023-02-19T13:24:16.881Z,14.51
2023-02-19T13:27:14.033Z,14.63
2023-02-19T13:29:51.409Z,14.68
2023-02-19T13:32:38.732Z,14.62
2023-02-19T13:35:32.957Z,14.60
2023-02-19T13:38:04.331Z,14.51
2023-02-19T13:40:33.323Z,14.49
2023-02-19T13:43:03.633Z,14.35
2023-02-19T13:45:43.950Z,14.17
2023-02-19T13:48:14.022Z,14.09
2023-02-19T13:50:41.720Z,14.02
2023-02-19T13:53:45.284Z,14.02
2023-02-19T13:56:30.301Z,14.01
2023-02-19T13:58:58.464Z,13.99
2023-02-19T14:01:50.390Z,13.87
2023-02-19T14:04:40.283Z,13.84
2023-02-19T14:07:07.011Z,13.85
2023-02-19T14:09:40.057Z,13.79
2023-02-19T14:12:10.417Z,13.84
2023-02-19T14:14:39.352Z,13.77
2023-02-19T14:17:08.861Z,13.64
2023-02-19T14:19:41.731Z,13.50
2023-02-19T14:22:52.038Z,13.41
2023-02-19T14:25:30.822Z,13.45
2023-02-19T14:28:22.162Z,13.48
2023-02-19T14:30:48.959Z,13.43
2023-02-19T14:33:23.080Z,13.38
2023-02-19T14:35:55.495Z,13.34
2023-02-19T14:38:29.828Z,13.34
2023-02-19T14:40:57.724Z,13.26
2023-02-19T14:43:26.375Z,13.27
2023-02-19T14:46:01.338Z,13.25
2023-02-19T14:48:35.208Z,13.31
2023-02-19T14:51:13.264Z,13.29
2023-02-19T14:53:45.011Z,13.39
2023-02-19T14:56:23.579Z,13.34
2023-02-19T14:59:12.367Z,13.37
2023-02-19T15:01:40.239Z,13.36
2023-02-19T15:04:21.201Z,13.30
2023-02-19T15:06:48.310Z,13.26
2023-02-19T15:09:16.791Z,13.21
2023-02-19T15:11:44.118Z,13.29
2023-02-19T15:14:21.465Z,13.27
2023-02-19T15:16:48.906Z,13.24
2023-02-19T15:19:17.153Z,13.19
2023-02-19T15:21:47.947Z,13.17
2023-02-19T15:24:15.592Z,13.16
2023-02-19T15:26:47.342Z,13.09
2023-02-19T15:29:16.829Z,13.10
2023-02-19T15:31:53.012Z,13.17
2023-02-19T15:34:30.796Z,13.32
2023-02-19T15:37:05.661Z,13.33
2023-02-19T15:39:53.497Z,13.37
2023-02-19T15:42:30.508Z,13.32
2023-02-19T15:45:01.595Z,13.25
2023-02-19T15:47:42.049Z,13.20
2023-02-19T15:50:30.390Z,13.25
2023-02-19T15:53:18.709Z,13.24
2023-02-19T15:55:51.424Z,13.16
2023-02-19T15:58:33.297Z,13.10
2023-02-19T16:01:06.102Z,13.05
2023-02-19T16:03:33.145Z,12.97
2023-02-19T16:06:11.514Z,12.96
2023-02-19T16:08:40.903Z,12.97
2023-02-19T16:11:28.057Z,13.00
2023-02-19T16:14:33.453Z,13.03
2023-02-19T16:17:07.470Z,12.98
2023-02-19T16:19:42.829Z,12.91
2023-02-19T16:22:12.241Z,12.85
2023-02-19T16:24:51.325Z,12.95
2023-02-19T16:27:34.836Z,12.94
2023-02-19T16:30:26.802Z,12.73
2023-02-19T16:33:36.958Z,12.64
2023-02-19T16:36:21.884Z,12.65
2023-02-19T16:39:09.337Z,12.65
2023-02-19T16:41:48.131Z,12.70
2023-02-19T16:44:21.085Z,12.65
2023-02-19T16:46:49.864Z,12.75
2023-02-19T16:49:16.916Z,12.75
2023-02-19T16:51:45.092Z,12.77
2023-02-19T16:54:12.732Z,12.81
2023-02-19T16:56:39.781Z,12.90
2023-02-19T16:59:09.599Z,12.92
2023-02-19T17:01:40.984Z,12.85
2023-02-19T17:04:11.721Z,12.77
2023-02-19T17:06:39.524Z,12.71
2023-02-19T17:09:08.595Z,12.66
2023-02-19T17:11:36.436Z,12.63
2023-02-19T17:14:03.779Z,12.59
2023-02-19T17:16:40.575Z,12.54
2023-02-19T17:19:17.389Z,12.60
2023-02-19T17:21:45.492Z,12.59
2023-02-19T17:24:19.450Z,12.56
2023-02-19T17:26:46.527Z,12.61
2023-02-19T17:29:15.296Z,12.62
2023-02-19T17:31:42.285Z,12.59
2023-02-19T17:34:09.347Z,12.56
2023-02-19T17:36:38.101Z,12.55
2023-02-19T17:39:12.141Z,12.54
2023-02-19T17:41:39.225Z,12.56
2023-02-19T17:44:06.133Z,12.61
2023-02-19T17:46:34.128Z,12.60
2023-02-19T17:49:01.082Z,12.56
2023-02-19T17:51:28.218Z,12.54
2023-02-19T17:53:55.285Z,12.55
2023-02-19T17:56:28.348Z,12.52
2023-02-19T17:58:56.905Z,12.52
2023-02-19T18:01:24.626Z,12.51
2023-02-19T18:03:52.153Z,12.36
2023-02-19T18:06:19.296Z,12.31
2023-02-19T18:08:48.377Z,12.32
2023-02-19T18:11:15.508Z,12.37
2023-02-19T18:13:42.712Z,12.44
2023-02-19T18:16:10.083Z,12.39
2023-02-19T18:18:37.308Z,12.32
2023-02-19T18:21:07.859Z,12.27
2023-02-19T18:23:35.001Z,12.27
2023-02-19T18:26:02.244Z,12.29
2023-02-19T18:28:29.741Z,12.31
2023-02-19T18:30:56.766Z,12.35
2023-02-19T18:33:23.832Z,12.39
2023-02-19T18:35:50.977Z,12.66
2023-02-19T18:38:18.510Z,12.69
2023-02-19T18:40:46.578Z,12.63
2023-02-19T18:43:13.445Z,12.56
2023-02-19T18:45:40.330Z,12.41
2023-02-19T18:48:07.334Z,12.39
2023-02-19T18:50:35.147Z,12.35
2023-02-19T18:53:02.450Z,12.35
2023-02-19T18:55:29.575Z,12.34
2023-02-19T18:57:57.003Z,12.33
2023-02-19T19:00:26.739Z,12.34
2023-02-19T19:02:58.335Z,12.29
2023-02-19T19:05:26.406Z,12.21
2023-02-19T19:07:59.516Z,12.14
2023-02-19T19:10:27.158Z,12.18
2023-02-19T19:12:54.542Z,12.23
2023-02-19T19:15:22.452Z,12.26
2023-02-19T19:17:49.878Z,12.21
2023-02-19T19:20:19.179Z,12.21
2023-02-19T19:22:46.399Z,12.24
2023-02-19T19:25:13.256Z,12.24
2023-02-19T19:27:40.152Z,12.21
2023-02-19T19:30:08.262Z,12.22
2023-02-19T19:32:35.322Z,12.22
2023-02-19T19:35:02.195Z,12.23
2023-02-19T19:37:29.398Z,12.24
2023-02-19T19:39:58.102Z,12.24
2023-02-19T19:42:25.172Z,12.19
2023-02-19T19:44:52.214Z,12.18
2023-02-19T19:47:19.206Z,12.19
2023-02-19T19:49:47.301Z,12.17
2023-02-19T19:52:16.944Z,12.15
2023-02-19T19:54:43.912Z,12.13
2023-02-19T19:57:11.421Z,12.10
2023-02-19T19:59:39.658Z,12.11
2023-02-19T20:02:07.934Z,12.12
2023-02-19T20:04:34.908Z,12.14
2023-02-19T20:07:02.432Z,12.17
2023-02-19T20:09:29.520Z,12.21
2023-02-19T20:11:56.809Z,12.19
2023-02-19T20:14:24.996Z,12.19
2023-02-19T20:16:52.632Z,12.17
2023-02-19T20:19:20.801Z,12.15
2023-02-19T20:21:52.956Z,12.12
2023-02-19T20:24:26.123Z,12.17
2023-02-19T20:27:02.192Z,12.21
2023-02-19T20:29:31.678Z,12.16
2023-02-19T20:32:00.196Z,12.13
2023-02-19T20:34:27.282Z,12.11
2023-02-19T20:36:54.597Z,12.10
2023-02-19T20:39:22.819Z,12.10
2023-02-19T20:41:51.924Z,12.07
2023-02-19T20:44:19.851Z,12.10
2023-02-19T20:46:49.667Z,12.11
2023-02-19T20:49:19.105Z,12.07
2023-02-19T20:51:52.143Z,12.06
2023-02-19T20:54:22.423Z,12.05
2023-02-19T20:56:53.273Z,12.05
2023-02-19T20:59:21.785Z,12.08
2023-02-19T21:01:49.844Z,12.02
2023-02-19T21:04:18.497Z,11.90
2023-02-19T21:06:46.269Z,11.83
2023-02-19T21:09:13.210Z,11.85
2023-02-19T21:11:40.465Z,11.89
2023-02-19T21:14:07.614Z,11.97
2023-02-19T21:16:35.016Z,11.99
2023-02-19T21:19:02.547Z,11.96
2023-02-19T21:21:31.591Z,11.99
2023-02-19T21:24:00.155Z,12.02
2023-02-19T21:26:37.440Z,12.04
2023-02-19T21:29:08.003Z,12.11
2023-02-19T21:31:43.484Z,12.18
2023-02-19T21:34:14.329Z,12.21
2023-02-19T21:36:41.561Z,12.17
2023-02-19T21:39:12.166Z,12.11
2023-02-19T21:41:39.484Z,12.07
2023-02-19T21:44:06.831Z,12.09
2023-02-19T21:46:34.707Z,12.08
2023-02-19T21:49:02.354Z,12.06
2023-02-19T21:51:38.064Z,12.04
2023-02-19T21:54:07.041Z,12.01
2023-02-19T21:56:36.550Z,11.99
2023-02-19T21:59:04.034Z,11.97
2023-02-19T22:01:33.621Z,11.98
2023-02-19T22:04:01.302Z,11.99
2023-02-19T22:06:30.619Z,11.99
2023-02-19T22:08:59.066Z,11.98
2023-02-19T22:11:26.292Z,11.99
2023-02-19T22:13:53.551Z,12.00
2023-02-19T22:16:21.019Z,11.96
2023-02-19T22:18:56.268Z,11.96
2023-02-19T22:21:25.685Z,11.94
2023-02-19T22:23:54.051Z,11.90
2023-02-19T22:26:26.140Z,11.85
2023-02-19T22:28:53.380Z,11.85
2023-02-19T22:31:23.248Z,11.85
2023-02-19T22:33:50.440Z,11.84
2023-02-19T22:36:26.129Z,11.86
2023-02-19T22:38:53.506Z,11.83
2023-02-19T22:41:21.182Z,11.73
2023-02-19T22:43:48.536Z,11.59
2023-02-19T22:46:18.876Z,11.54
2023-02-19T22:48:46.272Z,11.54
2023-02-19T22:51:18.384Z,11.61
2023-02-19T22:53:49.197Z,11.62
2023-02-19T22:56:17.902Z,11.58
2023-02-19T22:58:45.018Z,11.53
2023-02-19T23:01:14.103Z,11.56
2023-02-19T23:03:55.156Z,11.63
2023-02-19T23:06:25.361Z,11.67
2023-02-19T23:08:53.794Z,11.70
2023-02-19T23:11:25.812Z,11.75
2023-02-19T23:13:53.440Z,11.73
2023-02-19T23:16:20.606Z,11.64
2023-02-19T23:18:48.140Z,11.59
2023-02-19T23:21:16.178Z,11.64
2023-02-19T23:23:44.832Z,11.69
2023-02-19T23:26:12.996Z,11.64
2023-02-19T23:28:41.956Z,11.68
2023-02-19T23:31:08.908Z,11.73
2023-02-19T23:33:36.076Z,11.72
2023-02-19T23:36:06.436Z,11.70
2023-02-19T23:38:33.710Z,11.72
2023-02-19T23:41:03.763Z,11.75
2023-02-19T23:43:30.601Z,11.78
2023-02-19T23:45:57.478Z,11.79
2023-02-19T23:48:24.422Z,11.80
2023-02-19T23:50:51.209Z,11.80
2023-02-19T23:53:18.045Z,11.72
2023-02-19T23:55:44.809Z,11.71
2023-02-19T23:58:11.925Z,11.65
